createdAt,value
2022-09-15T00:01:33.972Z,10.60
2022-09-15T00:04:36.562Z,13.05
2022-09-15T00:07:38.946Z,11.85
2022-09-15T00:10:49.977Z,11.90
2022-09-15T00:13:53.468Z,12.47
2022-09-15T00:16:55.970Z,12.23
2022-09-15T00:19:58.522Z,10.55
2022-09-15T00:23:00.731Z,12.50
2022-09-15T00:26:07.415Z,12.13
2022-09-15T00:29:10.690Z,11.63
2022-09-15T00:32:12.896Z,13.13
2022-09-15T00:35:15.095Z,10.95
2022-09-15T00:38:18.730Z,13.63
2022-09-15T00:41:22.862Z,11.93
2022-09-15T00:44:25.192Z,12.40
2022-09-15T00:47:31.193Z,13.68
2022-09-15T00:50:34.271Z,12.02
2022-09-15T00:53:37.248Z,12.43
2022-09-15T00:56:40.921Z,14.48
2022-09-15T00:59:43.482Z,12.93
2022-09-15T01:02:47.301Z,12.45
2022-09-15T01:05:54.551Z,11.40
2022-09-15T01:09:03.490Z,13.25
2022-09-15T01:12:06.287Z,10.65
2022-09-15T01:15:08.742Z,9.60
2022-09-15T01:21:58.900Z,10.40
2022-09-15T01:25:45.309Z,8.13
2022-09-15T01:29:02.853Z,8.25
2022-09-15T01:32:42.558Z,9.30
2022-09-15T01:35:53.810Z,8.30
2022-09-15T01:39:07.503Z,8.20
2022-09-15T01:42:13.164Z,10.30
2022-09-15T01:45:22.281Z,9.30
2022-09-15T01:48:25.758Z,6.77
2022-09-15T01:51:28.567Z,9.07
2022-09-15T01:54:34.101Z,7.00
2022-09-15T01:57:36.375Z,8.18
2022-09-15T02:00:43.015Z,7.70
2022-09-15T02:04:05.205Z,7.83
2022-09-15T02:07:35.554Z,6.85
2022-09-15T02:10:53.606Z,7.90
2022-09-15T02:13:58.652Z,7.70
2022-09-15T02:17:02.108Z,7.57
2022-09-15T02:20:16.194Z,6.97
2022-09-15T02:23:26.291Z,7.22
2022-09-15T02:26:29.457Z,7.57
2022-09-15T02:29:33.665Z,9.13
2022-09-15T02:32:37.545Z,6.85
2022-09-15T02:35:40.413Z,7.23
2022-09-15T02:38:47.517Z,6.85
2022-09-15T02:41:49.977Z,7.72
2022-09-15T02:44:52.613Z,7.35
2022-09-15T02:47:54.792Z,7.70
2022-09-15T02:50:57.133Z,6.63
2022-09-15T02:53:59.509Z,8.35
2022-09-15T02:57:01.866Z,6.45
2022-09-15T03:00:14.832Z,7.00
2022-09-15T03:03:19.025Z,6.50
2022-09-15T03:06:21.587Z,8.00
2022-09-15T03:09:23.738Z,6.80
2022-09-15T03:12:26.235Z,7.47
2022-09-15T03:15:28.418Z,7.53
2022-09-15T03:18:30.731Z,7.22
2022-09-15T03:21:33.019Z,6.20
2022-09-15T03:24:35.466Z,5.57
2022-09-15T03:27:38.249Z,6.38
2022-09-15T03:30:42.467Z,5.38
2022-09-15T03:33:44.805Z,4.82
2022-09-15T03:36:46.966Z,4.67
2022-09-15T03:39:49.215Z,5.15
2022-09-15T03:42:51.457Z,5.72
2022-09-15T03:45:55.050Z,5.50
2022-09-15T03:48:57.669Z,4.75
2022-09-15T03:51:59.909Z,5.13
2022-09-15T03:55:02.099Z,4.30
2022-09-15T03:58:04.327Z,5.25
2022-09-15T04:01:07.210Z,4.88
2022-09-15T04:04:10.996Z,4.30
2022-09-15T04:07:13.991Z,4.77
2022-09-15T04:10:17.591Z,4.45
2022-09-15T04:13:20.679Z,4.90
2022-09-15T04:16:24.681Z,4.97
2022-09-15T04:19:26.973Z,4.22
2022-09-15T04:22:32.490Z,4.17
2022-09-15T04:25:34.722Z,4.60
2022-09-15T04:28:37.979Z,3.95
2022-09-15T04:31:40.395Z,5.68
2022-09-15T04:34:42.640Z,3.63
2022-09-15T04:37:44.894Z,4.07
2022-09-15T04:40:47.083Z,4.78
2022-09-15T04:43:49.578Z,3.92
2022-09-15T04:46:51.835Z,4.63
2022-09-15T04:49:54.085Z,5.65
2022-09-15T04:52:56.325Z,4.23
2022-09-15T04:56:08.144Z,4.10
2022-09-15T04:59:20.144Z,4.50
2022-09-15T05:02:22.366Z,4.20
2022-09-15T05:05:25.451Z,4.63
2022-09-15T05:08:27.588Z,4.43
2022-09-15T05:11:31.072Z,4.13
2022-09-15T05:14:33.197Z,4.05
2022-09-15T05:17:35.569Z,5.75
2022-09-15T05:20:38.670Z,4.53
2022-09-15T05:23:41.603Z,4.20
2022-09-15T05:26:43.827Z,3.15
2022-09-15T05:29:46.154Z,3.65
2022-09-15T05:32:48.388Z,3.65
2022-09-15T05:35:58.883Z,3.30
2022-09-15T05:39:01.914Z,3.33
2022-09-15T05:42:04.272Z,4.43
2022-09-15T05:45:07.156Z,3.60
2022-09-15T05:48:13.326Z,3.53
2022-09-15T05:51:15.557Z,4.20
2022-09-15T05:54:17.727Z,3.63
2022-09-15T05:57:20.074Z,3.63
2022-09-15T06:00:22.457Z,3.67
2022-09-15T06:03:30.017Z,3.78
2022-09-15T06:06:33.361Z,6.07
2022-09-15T06:09:35.499Z,3.50
2022-09-15T06:12:37.655Z,4.53
2022-09-15T06:15:39.787Z,4.72
2022-09-15T06:18:42.449Z,3.55
2022-09-15T06:21:44.618Z,4.30
2022-09-15T06:24:46.858Z,3.90
2022-09-15T06:27:50.137Z,4.90
2022-09-15T06:30:52.324Z,4.60
2022-09-15T06:33:56.141Z,4.28
2022-09-15T06:36:59.733Z,4.47
2022-09-15T06:40:02.467Z,3.77
2022-09-15T06:43:04.668Z,3.50
2022-09-15T06:46:09.416Z,4.15
2022-09-15T06:49:11.711Z,4.05
2022-09-15T06:52:13.908Z,4.57
2022-09-15T06:55:16.178Z,4.23
2022-09-15T06:58:18.457Z,5.25
2022-09-15T07:01:25.425Z,6.28
2022-09-15T07:04:27.626Z,3.92
2022-09-15T07:07:29.872Z,4.18
2022-09-15T07:10:32.103Z,3.87
2022-09-15T07:13:34.290Z,4.57
2022-09-15T07:16:36.610Z,4.82
2022-09-15T07:19:40.225Z,3.67
2022-09-15T07:22:42.678Z,3.58
2022-09-15T07:25:45.312Z,4.47
2022-09-15T07:28:52.435Z,3.78
2022-09-15T07:31:54.869Z,3.40
2022-09-15T07:34:58.527Z,4.65
2022-09-15T07:38:00.989Z,4.75
2022-09-15T07:41:07.422Z,4.10
2022-09-15T07:44:11.687Z,3.83
2022-09-15T07:47:13.990Z,4.07
2022-09-15T07:50:16.617Z,4.35
2022-09-15T07:53:18.781Z,3.53
2022-09-15T07:56:21.701Z,3.73
2022-09-15T07:59:24.083Z,5.72
2022-09-15T08:02:26.801Z,5.43
2022-09-15T08:05:29.058Z,4.50
2022-09-15T08:08:31.228Z,3.83
2022-09-15T08:11:34.303Z,3.70
2022-09-15T08:14:38.320Z,3.70
2022-09-15T08:17:40.811Z,3.85
2022-09-15T08:20:43.290Z,4.15
2022-09-15T08:23:45.930Z,4.10
2022-09-15T08:26:48.712Z,3.27
2022-09-15T08:29:51.108Z,3.80
2022-09-15T08:32:53.334Z,3.05
2022-09-15T08:36:01.137Z,3.30
2022-09-15T08:39:04.277Z,5.63
2022-09-15T08:42:06.598Z,5.93
2022-09-15T08:45:19.182Z,3.25
2022-09-15T08:48:26.420Z,4.25
2022-09-15T08:51:34.345Z,2.80
2022-09-15T08:54:36.909Z,7.43
2022-09-15T08:57:39.309Z,3.07
2022-09-15T09:00:42.600Z,4.75
2022-09-15T09:04:08.525Z,2.72
2022-09-15T09:07:35.778Z,3.38
2022-09-15T09:11:12.861Z,3.10
2022-09-15T09:14:36.918Z,4.43
2022-09-15T09:18:13.074Z,5.18
2022-09-15T09:21:18.722Z,4.47
2022-09-15T09:24:36.922Z,7.78
2022-09-15T09:27:40.807Z,4.38
2022-09-15T09:30:43.083Z,3.83
2022-09-15T09:33:53.667Z,3.33
2022-09-15T09:37:01.271Z,4.88
2022-09-15T09:40:03.804Z,3.13
2022-09-15T09:43:06.085Z,3.75
2022-09-15T09:46:16.587Z,3.97
2022-09-15T09:49:23.165Z,3.90
2022-09-15T09:52:35.334Z,3.30
2022-09-15T09:55:38.466Z,2.67
2022-09-15T09:58:40.735Z,3.83
2022-09-15T10:02:11.941Z,3.30
2022-09-15T10:05:19.280Z,3.65
2022-09-15T10:08:21.526Z,3.20
2022-09-15T10:11:48.267Z,2.75
2022-09-15T10:14:53.030Z,2.50
2022-09-15T10:17:56.559Z,2.77
2022-09-15T10:21:00.064Z,5.38
2022-09-15T10:24:25.277Z,2.55
2022-09-15T10:27:35.625Z,2.80
2022-09-15T10:30:39.018Z,2.55
2022-09-15T10:33:45.489Z,4.10
2022-09-15T10:36:48.022Z,3.40
2022-09-15T10:39:55.147Z,5.10
2022-09-15T10:43:34.206Z,3.03
2022-09-15T10:47:07.364Z,3.53
2022-09-15T10:50:17.608Z,2.57
2022-09-15T10:53:22.822Z,2.20
2022-09-15T10:56:37.587Z,4.50
2022-09-15T11:00:09.488Z,2.53
2022-09-15T11:03:27.524Z,3.35
2022-09-15T11:06:50.457Z,3.13
2022-09-15T11:10:27.154Z,3.03
2022-09-15T11:13:59.326Z,3.15
2022-09-15T11:17:05.309Z,4.22
2022-09-15T11:20:15.061Z,3.13
2022-09-15T11:23:22.141Z,2.60
2022-09-15T11:26:40.805Z,4.00
2022-09-15T11:30:03.758Z,2.95
2022-09-15T11:33:09.718Z,2.80
2022-09-15T11:36:37.597Z,4.40
2022-09-15T11:39:47.815Z,3.73
2022-09-15T11:43:00.475Z,5.38
2022-09-15T11:46:09.959Z,4.68
2022-09-15T11:49:20.589Z,4.88
2022-09-15T11:52:50.819Z,5.00
2022-09-15T11:56:14.290Z,3.40
2022-09-15T11:59:39.401Z,3.25
2022-09-15T12:02:54.118Z,5.18
2022-09-15T12:06:03.404Z,3.20
2022-09-15T12:09:07.172Z,3.50
2022-09-15T12:12:15.553Z,4.63
2022-09-15T12:15:19.252Z,5.25
2022-09-15T12:18:39.329Z,4.47
2022-09-15T12:21:53.255Z,3.72
2022-09-15T12:25:06.605Z,4.32
2022-09-15T12:28:24.250Z,4.13
2022-09-15T12:31:35.378Z,6.95
2022-09-15T12:34:38.576Z,6.25
2022-09-15T12:37:45.372Z,5.35
2022-09-15T12:40:56.911Z,5.00
2022-09-15T12:44:04.266Z,4.20
2022-09-15T12:47:15.286Z,4.78
2022-09-15T12:50:17.463Z,4.68
2022-09-15T12:53:31.450Z,5.00
2022-09-15T12:56:34.866Z,4.60
2022-09-15T12:59:37.103Z,7.13
2022-09-15T13:02:45.049Z,5.25
2022-09-15T13:05:47.414Z,3.92
2022-09-15T13:08:51.686Z,5.18
2022-09-15T13:11:54.750Z,3.42
2022-09-15T13:14:57.163Z,2.73
2022-09-15T13:18:04.218Z,3.70
2022-09-15T13:21:13.299Z,4.00
2022-09-15T13:24:24.537Z,3.45
2022-09-15T13:27:36.476Z,4.65
2022-09-15T13:31:00.916Z,2.87
2022-09-15T13:41:21.137Z,4.03
2022-09-15T13:45:01.199Z,2.97
2022-09-15T13:48:43.406Z,3.47
2022-09-15T13:51:53.471Z,3.63
2022-09-15T13:55:14.886Z,3.50
2022-09-15T14:01:44.911Z,4.88
2022-09-15T14:04:52.221Z,3.30
2022-09-15T14:08:01.450Z,3.42
2022-09-15T14:11:10.489Z,4.32
2022-09-15T14:14:28.944Z,5.85
2022-09-15T14:17:33.062Z,6.18
2022-09-15T14:20:36.056Z,4.27
2022-09-15T14:23:45.909Z,6.70
2022-09-15T14:26:49.411Z,6.63
2022-09-15T14:29:58.241Z,5.15
2022-09-15T14:33:02.659Z,5.88
2022-09-15T14:36:22.951Z,6.63
2022-09-15T14:39:26.051Z,7.88
2022-09-15T14:42:32.903Z,6.20
2022-09-15T14:49:14.551Z,7.07
2022-09-15T14:52:27.485Z,5.80
2022-09-15T14:55:41.883Z,8.52
2022-09-15T14:58:52.048Z,7.72
2022-09-15T15:02:04.802Z,6.85
2022-09-15T15:05:18.171Z,5.95
2022-09-15T15:08:28.175Z,8.40
2022-09-15T15:11:34.019Z,10.48
2022-09-15T15:14:36.285Z,8.82
2022-09-15T15:17:45.251Z,7.43
2022-09-15T15:20:49.739Z,11.27
2022-09-15T15:23:51.977Z,7.90
2022-09-15T15:26:54.139Z,8.27
2022-09-15T15:29:56.366Z,8.77
2022-09-15T15:33:00.776Z,8.50
2022-09-15T15:36:12.108Z,8.63
2022-09-15T15:39:27.180Z,10.07
2022-09-15T15:42:29.649Z,7.70
2022-09-15T15:45:34.508Z,8.02
2022-09-15T15:48:38.455Z,8.02
2022-09-15T15:51:42.347Z,8.77
2022-09-15T15:54:45.323Z,7.73
2022-09-15T15:57:50.370Z,7.28
2022-09-15T16:00:56.651Z,8.60
2022-09-15T16:03:58.943Z,6.88
2022-09-15T16:07:01.083Z,9.07
2022-09-15T16:10:03.839Z,7.70
2022-09-15T16:13:06.405Z,7.10
2022-09-15T16:16:16.160Z,9.68
2022-09-15T16:19:18.656Z,9.35
2022-09-15T16:22:21.094Z,7.97
2022-09-15T16:25:36.728Z,7.77
2022-09-15T16:28:39.209Z,9.80
2022-09-15T16:31:43.048Z,11.40
2022-09-15T16:34:47.220Z,7.32
2022-09-15T16:37:49.617Z,8.15
2022-09-15T16:40:52.349Z,9.77
2022-09-15T16:44:00.268Z,7.85
2022-09-15T16:47:02.637Z,8.93
2022-09-15T16:50:05.382Z,8.32
2022-09-15T16:53:18.529Z,8.63
2022-09-15T16:56:20.727Z,8.07
2022-09-15T16:59:23.959Z,7.30
2022-09-15T17:02:31.695Z,8.50
2022-09-15T17:05:38.466Z,7.72
2022-09-15T17:08:40.984Z,8.20
2022-09-15T17:11:43.531Z,8.57
2022-09-15T17:14:45.735Z,8.43
2022-09-15T17:17:52.928Z,10.32
2022-09-15T17:20:55.788Z,9.75
2022-09-15T17:23:57.948Z,9.60
2022-09-15T17:27:00.508Z,9.63
2022-09-15T17:30:02.799Z,8.55
2022-09-15T17:33:07.088Z,10.70
2022-09-15T17:36:09.420Z,9.07
2022-09-15T17:39:11.553Z,9.07
2022-09-15T17:42:13.841Z,9.23
2022-09-15T17:45:26.111Z,7.20
2022-09-15T17:48:52.761Z,7.93
2022-09-15T17:52:01.330Z,8.07
2022-09-15T17:55:14.675Z,9.50
2022-09-15T17:58:17.700Z,9.40
2022-09-15T18:01:20.161Z,8.35
2022-09-15T18:04:22.619Z,8.52
2022-09-15T18:07:25.167Z,9.45
2022-09-15T18:10:28.545Z,8.10
2022-09-15T18:13:31.557Z,7.67
2022-09-15T18:16:34.136Z,6.82
2022-09-15T18:19:36.731Z,10.52
2022-09-15T18:22:40.332Z,8.77
2022-09-15T18:25:43.265Z,7.70
2022-09-15T18:28:45.958Z,8.17
2022-09-15T18:31:48.519Z,7.22
2022-09-15T18:34:51.257Z,8.45
2022-09-15T18:37:58.524Z,7.03
2022-09-15T18:41:01.759Z,10.18
2022-09-15T18:44:04.362Z,8.83
2022-09-15T18:47:06.908Z,8.15
2022-09-15T18:50:11.942Z,9.02
2022-09-15T18:53:14.454Z,8.68
2022-09-15T18:56:16.909Z,6.95
2022-09-15T18:59:19.664Z,8.10
2022-09-15T19:02:22.356Z,7.93
2022-09-15T19:05:25.592Z,8.93
2022-09-15T19:08:28.029Z,8.27
2022-09-15T19:11:30.785Z,8.30
2022-09-15T19:14:33.361Z,9.30
2022-09-15T19:17:37.455Z,8.90
2022-09-15T19:20:41.160Z,7.95
2022-09-15T19:23:44.109Z,7.75
2022-09-15T19:26:47.586Z,7.90
2022-09-15T19:29:50.158Z,6.93
2022-09-15T19:32:53.114Z,7.28
2022-09-15T19:36:17.177Z,9.05
2022-09-15T19:39:20.135Z,8.63
2022-09-15T19:42:22.442Z,7.40
2022-09-15T19:45:24.769Z,9.77
2022-09-15T19:48:27.448Z,8.55
2022-09-15T19:51:31.467Z,8.52
2022-09-15T19:54:34.865Z,9.60
2022-09-15T19:57:41.770Z,9.25
2022-09-15T20:00:44.691Z,8.60
2022-09-15T20:07:06.955Z,9.55
2022-09-15T20:10:09.133Z,7.03
2022-09-15T20:13:11.384Z,12.23
2022-09-15T20:16:18.614Z,7.53
2022-09-15T20:19:20.752Z,6.97
2022-09-15T20:22:26.329Z,8.52
2022-09-15T20:25:28.756Z,6.72
2022-09-15T20:28:31.047Z,9.05
2022-09-15T20:31:34.139Z,10.17
2022-09-15T20:34:36.264Z,8.88
2022-09-15T20:37:38.888Z,9.27
2022-09-15T20:40:41.045Z,9.65
2022-09-15T20:43:43.407Z,9.20
2022-09-15T20:46:45.595Z,10.20
2022-09-15T20:49:47.805Z,11.88
2022-09-15T20:52:50.035Z,10.70
2022-09-15T20:55:52.215Z,8.88
2022-09-15T20:58:58.678Z,7.78
2022-09-15T21:02:00.878Z,10.97
2022-09-15T21:05:03.293Z,10.88
2022-09-15T21:08:05.561Z,12.02
2022-09-15T21:11:15.238Z,10.60
2022-09-15T21:14:17.522Z,9.50
2022-09-15T21:17:20.351Z,9.10
2022-09-15T21:20:23.133Z,10.10
2022-09-15T21:23:26.844Z,9.52
2022-09-15T21:27:00.464Z,8.35
2022-09-15T21:30:03.749Z,11.52
2022-09-15T21:33:06.646Z,10.73
2022-09-15T21:36:14.711Z,10.35
2022-09-15T21:39:16.896Z,12.15
2022-09-15T21:42:19.103Z,9.88
2022-09-15T21:45:22.144Z,10.75
2022-09-15T21:48:25.322Z,10.93
2022-09-15T21:51:28.865Z,10.85
2022-09-15T21:54:31.558Z,9.40
2022-09-15T21:57:33.908Z,8.73
2022-09-15T22:00:36.806Z,9.68
2022-09-15T22:03:42.221Z,8.53
2022-09-15T22:06:45.079Z,10.30
2022-09-15T22:09:47.503Z,11.18
2022-09-15T22:12:52.234Z,10.85
2022-09-15T22:16:04.105Z,10.07
2022-09-15T22:19:07.239Z,11.40
2022-09-15T22:22:09.545Z,10.95
2022-09-15T22:25:12.077Z,11.05
2022-09-15T22:28:14.248Z,11.10
2022-09-15T22:31:17.775Z,9.32
2022-09-15T22:34:19.988Z,9.30
2022-09-15T22:37:27.006Z,10.90
2022-09-15T22:40:29.475Z,10.65
2022-09-15T22:43:32.104Z,8.98
2022-09-15T22:46:35.002Z,10.00
2022-09-15T22:49:37.162Z,10.40
2022-09-15T22:52:39.347Z,10.77
2022-09-15T22:55:41.697Z,11.05
2022-09-15T22:58:44.229Z,9.00
2022-09-15T23:01:46.942Z,10.00
2022-09-15T23:04:49.152Z,8.53
2022-09-15T23:07:51.286Z,9.25
2022-09-15T23:10:53.464Z,9.40
2022-09-15T23:13:56.404Z,9.50
2022-09-15T23:16:58.589Z,7.93
2022-09-15T23:20:01.251Z,8.57
2022-09-15T23:23:03.415Z,8.70
2022-09-15T23:26:07.084Z,9.50
2022-09-15T23:29:10.105Z,9.30
2022-09-15T23:32:12.970Z,8.65
2022-09-15T23:35:15.462Z,10.87
2022-09-15T23:38:18.686Z,11.60
2022-09-15T23:41:20.918Z,9.77
2022-09-15T23:44:23.592Z,9.73
2022-09-15T23:47:25.767Z,9.40
2022-09-15T23:50:29.116Z,8.20
2022-09-15T23:53:31.267Z,6.78
2022-09-15T23:56:33.871Z,7.47
2022-09-15T23:59:36.073Z,6.95
